createdAt,value
2018-06-25T00:00:37.459Z,73.37
2018-06-25T00:03:09.638Z,73.99
2018-06-25T00:05:40.771Z,73.69
2018-06-25T00:08:12.076Z,73.96
2018-06-25T00:10:44.093Z,73.69
2018-06-25T00:13:15.198Z,73.62
2018-06-25T00:15:47.315Z,73.35
2018-06-25T00:18:19.076Z,73.13
2018-06-25T00:20:50.208Z,73.54
2018-06-25T00:23:21.299Z,73.50
2018-06-25T00:25:52.406Z,73.64
2018-06-25T00:28:23.441Z,73.62
2018-06-25T00:30:55.362Z,73.95
2018-06-25T00:33:26.618Z,73.45
2018-06-25T00:35:57.674Z,73.47
2018-06-25T00:38:28.731Z,73.40
2018-06-25T00:40:59.635Z,73.63
2018-06-25T00:43:31.015Z,73.80
2018-06-25T00:46:02.293Z,73.71
2018-06-25T00:48:33.428Z,74.33
2018-06-25T00:51:04.445Z,74.75
2018-06-25T00:53:35.541Z,74.71
2018-06-25T00:56:07.229Z,75.60
2018-06-25T00:58:54.551Z,76.17
2018-06-25T01:01:25.654Z,76.42
2018-06-25T01:03:57.268Z,75.66
2018-06-25T01:06:29.585Z,75.41
2018-06-25T01:09:00.733Z,75.86
2018-06-25T01:11:32.627Z,75.60
2018-06-25T01:14:04.009Z,75.46
2018-06-25T01:16:35.207Z,76.18
2018-06-25T01:19:06.692Z,75.76
2018-06-25T01:21:37.959Z,76.18
2018-06-25T01:24:09.851Z,75.54
2018-06-25T01:26:40.811Z,75.91
2018-06-25T01:29:11.895Z,75.93
2018-06-25T01:31:43.724Z,76.05
2018-06-25T01:34:15.765Z,76.15
2018-06-25T01:36:46.983Z,76.69
2018-06-25T01:39:18.405Z,76.91
2018-06-25T01:41:49.591Z,76.51
2018-06-25T01:44:20.829Z,76.65
2018-06-25T01:46:51.809Z,76.21
2018-06-25T01:49:22.955Z,76.18
2018-06-25T01:51:53.966Z,76.90
2018-06-25T01:54:25.079Z,77.03
2018-06-25T01:56:56.380Z,77.53
2018-06-25T01:59:26.923Z,77.77
2018-06-25T02:01:58.965Z,77.54
2018-06-25T02:04:30.675Z,77.72
2018-06-25T02:07:02.185Z,77.86
2018-06-25T02:09:33.511Z,78.10
2018-06-25T02:12:04.638Z,78.32
2018-06-25T02:14:35.586Z,78.44
2018-06-25T02:17:06.836Z,78.40
2018-06-25T02:19:37.952Z,78.88
2018-06-25T02:22:09.312Z,78.88
2018-06-25T02:24:40.383Z,78.53
2018-06-25T02:27:11.709Z,78.50
2018-06-25T02:29:42.957Z,78.53
2018-06-25T02:32:14.134Z,78.28
2018-06-25T02:34:45.396Z,77.52
2018-06-25T02:37:16.496Z,77.11
2018-06-25T02:39:48.512Z,77.48
2018-06-25T02:42:19.420Z,77.79
2018-06-25T02:44:50.264Z,77.85
2018-06-25T02:47:21.645Z,78.37
2018-06-25T02:49:52.480Z,78.49
2018-06-25T02:52:23.370Z,78.73
2018-06-25T02:54:54.510Z,78.64
2018-06-25T02:57:25.551Z,78.34
2018-06-25T02:59:56.509Z,78.21
2018-06-25T03:02:27.528Z,77.70
2018-06-25T03:04:58.542Z,77.06
2018-06-25T03:07:29.699Z,76.25
2018-06-25T03:10:00.726Z,76.24
2018-06-25T03:12:32.559Z,76.80
2018-06-25T03:15:03.944Z,77.06
2018-06-25T03:17:34.801Z,77.58
2018-06-25T03:20:06.031Z,77.29
2018-06-25T03:22:37.402Z,77.53
2018-06-25T03:25:08.234Z,77.31
2018-06-25T03:27:39.280Z,78.06
2018-06-25T03:30:10.224Z,78.02
2018-06-25T03:32:42.873Z,77.91
2018-06-25T03:35:13.775Z,78.00
2018-06-25T03:37:45.557Z,78.57
2018-06-25T03:40:16.433Z,78.05
2018-06-25T03:42:47.779Z,77.78
2018-06-25T03:45:18.831Z,78.41
2018-06-25T03:47:49.520Z,78.37
2018-06-25T03:50:20.885Z,78.36
2018-06-25T03:52:51.860Z,78.69
2018-06-25T03:55:22.915Z,78.54
2018-06-25T03:57:54.154Z,78.77
2018-06-25T04:00:25.529Z,78.76
2018-06-25T04:02:56.768Z,78.66
2018-06-25T04:05:27.853Z,78.85
2018-06-25T04:07:59.807Z,78.50
2018-06-25T04:10:30.361Z,78.84
2018-06-25T04:13:01.147Z,78.47
2018-06-25T04:15:32.762Z,78.44
2018-06-25T04:18:03.779Z,78.13
2018-06-25T04:20:34.814Z,77.75
2018-06-25T04:23:05.628Z,76.68
2018-06-25T04:25:36.827Z,76.35
2018-06-25T04:28:07.516Z,75.60
2018-06-25T04:30:39.102Z,75.51
2018-06-25T04:33:10.055Z,75.23
2018-06-25T04:35:41.734Z,74.79
2018-06-25T04:38:13.275Z,74.70
2018-06-25T04:40:44.650Z,74.21
2018-06-25T04:43:22.764Z,74.43
2018-06-25T04:45:53.968Z,74.57
2018-06-25T04:48:25.072Z,74.63
2018-06-25T04:50:56.253Z,74.36
2018-06-25T04:53:27.665Z,74.11
2018-06-25T04:55:58.778Z,74.44
2018-06-25T04:58:30.879Z,74.57
2018-06-25T05:01:02.298Z,74.23
2018-06-25T05:03:33.267Z,74.57
2018-06-25T05:06:05.304Z,74.45
2018-06-25T05:08:37.195Z,73.49
2018-06-25T05:11:09.061Z,73.83
2018-06-25T05:13:39.941Z,73.84
2018-06-25T05:16:11.836Z,73.11
2018-06-25T05:18:44.340Z,72.77
2018-06-25T05:21:16.294Z,72.01
2018-06-25T05:23:47.605Z,71.90
2018-06-25T05:26:18.733Z,71.41
2018-06-25T05:28:49.531Z,71.38
2018-06-25T05:31:20.951Z,70.29
2018-06-25T05:33:52.265Z,69.47
2018-06-25T05:36:23.814Z,69.07
2018-06-25T05:38:55.430Z,69.51
2018-06-25T05:41:27.123Z,68.83
2018-06-25T05:43:58.205Z,67.62
2018-06-25T05:46:29.467Z,66.63
2018-06-25T05:48:59.865Z,65.72
2018-06-25T05:51:31.053Z,64.99
2018-06-25T05:54:02.945Z,65.17
2018-06-25T05:56:34.406Z,65.34
2018-06-25T05:59:06.088Z,64.85
2018-06-25T06:01:37.614Z,64.47
2018-06-25T06:04:09.079Z,63.50
2018-06-25T06:06:40.166Z,62.55
2018-06-25T06:09:11.395Z,61.51
2018-06-25T06:11:44.117Z,61.14
2018-06-25T06:14:15.643Z,60.37
2018-06-25T06:16:46.915Z,58.55
2018-06-25T06:19:18.661Z,59.24
2018-06-25T06:21:50.189Z,58.69
2018-06-25T06:24:22.507Z,55.84
2018-06-25T06:26:54.132Z,51.67
2018-06-25T06:29:29.322Z,50.14
2018-06-25T06:32:01.202Z,47.47
2018-06-25T06:34:33.260Z,46.82
2018-06-25T06:37:04.663Z,44.71
2018-06-25T06:39:36.371Z,43.57
2018-06-25T06:42:07.220Z,42.66
2018-06-25T06:44:39.422Z,42.65
2018-06-25T06:47:11.429Z,41.33
2018-06-25T06:49:42.578Z,40.68
2018-06-25T06:52:13.601Z,40.80
2018-06-25T06:54:44.161Z,40.69
2018-06-25T06:57:14.790Z,40.33
2018-06-25T06:59:46.639Z,39.30
2018-06-25T07:02:17.894Z,38.70
2018-06-25T07:04:49.451Z,39.29
2018-06-25T07:07:21.552Z,37.89
2018-06-25T07:09:53.563Z,38.07
2018-06-25T07:12:26.105Z,37.60
2018-06-25T07:14:57.383Z,36.47
2018-06-25T07:17:28.547Z,35.79
2018-06-25T07:19:59.377Z,35.71
2018-06-25T07:22:30.628Z,37.07
2018-06-25T07:25:01.281Z,38.14
2018-06-25T07:27:32.096Z,37.48
2018-06-25T07:30:04.637Z,37.01
2018-06-25T07:32:35.691Z,37.86
2018-06-25T07:35:06.705Z,37.36
2018-06-25T07:37:37.835Z,36.45
2018-06-25T07:40:08.972Z,34.69
2018-06-25T07:42:40.074Z,33.30
2018-06-25T07:45:11.856Z,34.28
2018-06-25T07:47:44.042Z,33.32
2018-06-25T07:50:15.867Z,31.69
2018-06-25T07:52:47.694Z,32.26
2018-06-25T08:41:15.807Z,26.62
2018-06-25T08:43:48.251Z,29.96
2018-06-25T08:46:19.645Z,28.02
2018-06-25T08:48:51.132Z,25.32
2018-06-25T08:51:23.013Z,23.62
2018-06-25T08:53:54.871Z,23.18
2018-06-25T08:56:26.541Z,24.82
2018-06-25T08:58:59.277Z,23.12
2018-06-25T09:01:30.897Z,22.08
2018-06-25T09:04:03.634Z,21.65
2018-06-25T09:06:35.056Z,21.60
2018-06-25T09:09:10.629Z,22.74
2018-06-25T09:11:41.709Z,21.94
2018-06-25T09:14:14.049Z,21.91
2018-06-25T09:16:45.982Z,22.09
2018-06-25T09:19:17.549Z,20.72
2018-06-25T09:21:49.845Z,19.61
2018-06-25T09:24:21.137Z,19.93
2018-06-25T09:26:53.777Z,19.48
2018-06-25T09:29:26.785Z,18.55
2018-06-25T09:31:59.593Z,18.99
2018-06-25T09:34:36.693Z,19.26
2018-06-25T09:37:09.544Z,18.02
2018-06-25T09:39:44.501Z,19.35
2018-06-25T09:42:17.317Z,19.13
2018-06-25T09:44:50.135Z,18.11
2018-06-25T09:47:22.000Z,17.62
2018-06-25T09:49:53.749Z,17.05
2018-06-25T09:52:24.786Z,17.14
2018-06-25T09:54:56.733Z,16.99
2018-06-25T09:57:28.369Z,17.65
2018-06-25T10:00:00.699Z,17.00
2018-06-25T10:02:32.542Z,17.09
2018-06-25T10:05:03.715Z,17.93
2018-06-25T10:07:35.301Z,17.95
2018-06-25T10:10:06.659Z,16.64
2018-06-25T10:12:37.867Z,16.12
2018-06-25T10:15:09.201Z,16.03
2018-06-25T10:17:41.877Z,16.01
2018-06-25T10:20:13.598Z,16.21
2018-06-25T10:22:45.078Z,15.95
2018-06-25T10:25:16.183Z,16.07
2018-06-25T10:27:47.384Z,16.63
2018-06-25T10:30:18.754Z,16.06
2018-06-25T10:32:49.867Z,16.24
2018-06-25T10:35:21.812Z,16.20
2018-06-25T10:37:53.374Z,15.57
2018-06-25T10:40:25.938Z,15.64
2018-06-25T10:42:57.129Z,14.99
2018-06-25T10:45:28.593Z,17.36
2018-06-25T10:48:00.099Z,17.74
2018-06-25T10:50:31.103Z,18.85
2018-06-25T10:53:03.133Z,20.32
2018-06-25T10:55:34.177Z,23.02
2018-06-25T10:58:05.375Z,24.22
2018-06-25T11:00:36.553Z,25.35
2018-06-25T11:03:08.890Z,26.92
2018-06-25T11:05:40.212Z,25.90
2018-06-25T11:08:11.519Z,24.68
2018-06-25T11:10:45.740Z,21.65
2018-06-25T11:13:17.728Z,20.39
2018-06-25T11:15:48.808Z,18.96
2018-06-25T11:18:20.222Z,18.36
2018-06-25T11:20:52.861Z,17.25
2018-06-25T11:23:24.563Z,16.14
2018-06-25T11:25:57.940Z,17.40
2018-06-25T11:28:29.338Z,18.51
2018-06-25T11:31:03.026Z,20.23
2018-06-25T11:33:34.293Z,21.12
2018-06-25T11:36:08.907Z,21.47
2018-06-25T11:38:41.394Z,20.35
2018-06-25T11:41:13.848Z,19.28
2018-06-25T11:43:45.655Z,18.47
2018-06-25T11:46:17.186Z,17.84
2018-06-25T11:48:48.508Z,16.27
2018-06-25T11:51:20.913Z,17.72
2018-06-25T11:53:52.685Z,16.45
2018-06-25T11:56:23.724Z,17.72
2018-06-25T11:58:55.499Z,17.30
2018-06-25T12:01:27.414Z,17.08
2018-06-25T12:04:04.162Z,17.73
2018-06-25T12:06:37.261Z,17.72
2018-06-25T12:09:14.476Z,18.40
2018-06-25T12:11:48.225Z,19.15
2018-06-25T12:14:21.035Z,18.97
2018-06-25T12:16:52.869Z,18.05
2018-06-25T12:19:25.316Z,16.68
2018-06-25T12:21:57.601Z,17.18
2018-06-25T12:24:31.812Z,24.92
2018-06-25T12:27:05.572Z,28.29
2018-06-25T12:29:37.891Z,30.70
2018-06-25T12:32:10.518Z,34.00
2018-06-25T12:34:42.321Z,36.52
2018-06-25T12:37:13.761Z,39.05
2018-06-25T12:39:45.522Z,39.57
2018-06-25T12:42:18.417Z,39.05
2018-06-25T12:44:50.056Z,38.89
2018-06-25T12:47:22.691Z,37.69
2018-06-25T12:49:53.502Z,38.96
2018-06-25T12:52:27.067Z,39.26
2018-06-25T12:55:03.950Z,40.33
2018-06-25T12:57:41.082Z,41.15
2018-06-25T13:00:12.489Z,41.17
2018-06-25T13:02:49.422Z,42.41
2018-06-25T13:05:21.038Z,41.80
2018-06-25T13:07:54.541Z,41.29
2018-06-25T13:10:27.077Z,39.81
2018-06-25T13:12:59.035Z,39.63
2018-06-25T13:15:30.923Z,40.46
2018-06-25T13:18:02.207Z,41.79
2018-06-25T13:20:33.728Z,45.34
2018-06-25T13:23:06.509Z,49.48
2018-06-25T13:25:38.116Z,49.72
2018-06-25T13:28:09.977Z,53.51
2018-06-25T13:30:42.059Z,56.90
2018-06-25T13:33:13.924Z,63.16
2018-06-25T13:35:45.534Z,67.85
2018-06-25T13:38:17.823Z,70.36
2018-06-25T13:40:49.248Z,73.21
2018-06-25T13:43:20.557Z,75.46
2018-06-25T13:45:52.658Z,77.23
2018-06-25T13:48:25.230Z,77.52
2018-06-25T13:50:59.361Z,79.01
2018-06-25T13:53:31.440Z,83.62
2018-06-25T13:56:03.965Z,81.71
2018-06-25T13:58:35.948Z,82.72
2018-06-25T14:01:08.564Z,83.83
2018-06-25T14:03:40.470Z,83.79
2018-06-25T14:06:14.178Z,84.49
2018-06-25T14:08:45.860Z,86.64
2018-06-25T14:11:18.865Z,85.06
2018-06-25T14:13:50.492Z,85.08
2018-06-25T14:16:22.138Z,85.55
2018-06-25T14:18:53.583Z,84.94
2018-06-25T14:21:25.351Z,82.38
2018-06-25T14:24:02.460Z,82.98
2018-06-25T14:26:39.427Z,84.04
2018-06-25T14:29:15.571Z,84.01
2018-06-25T14:31:46.937Z,84.12
2018-06-25T14:34:23.303Z,85.71
2018-06-25T14:36:54.619Z,85.09
2018-06-25T14:39:26.724Z,84.83
2018-06-25T14:41:57.684Z,85.77
2018-06-25T14:44:29.353Z,84.48
2018-06-25T14:47:00.783Z,85.87
2018-06-25T14:49:32.036Z,85.52
2018-06-25T14:52:03.582Z,85.65
2018-06-25T14:54:34.445Z,85.03
2018-06-25T14:57:06.232Z,84.71
2018-06-25T14:59:38.015Z,85.55
2018-06-25T15:02:10.361Z,84.42
2018-06-25T15:04:41.805Z,84.95
2018-06-25T15:07:16.972Z,85.43
2018-06-25T15:09:51.663Z,85.87
2018-06-25T15:12:23.994Z,85.42
2018-06-25T15:14:56.088Z,85.33
2018-06-25T15:17:29.245Z,86.26
2018-06-25T15:20:02.746Z,85.38
2018-06-25T15:22:38.032Z,85.52
2018-06-25T15:25:10.312Z,84.69
2018-06-25T15:27:42.515Z,84.94
2018-06-25T15:30:14.415Z,85.07
2018-06-25T15:32:46.196Z,84.42
2018-06-25T15:35:18.997Z,84.44
2018-06-25T15:37:50.833Z,85.78
2018-06-25T15:40:23.540Z,85.11
2018-06-25T15:42:56.290Z,84.02
2018-06-25T15:45:29.838Z,83.98
2018-06-25T15:48:03.311Z,84.19
2018-06-25T15:50:37.043Z,82.30
2018-06-25T15:53:10.012Z,82.01
2018-06-25T15:55:46.880Z,81.54
2018-06-25T15:58:18.974Z,82.01
2018-06-25T16:00:51.586Z,81.75
2018-06-25T16:03:26.089Z,80.73
2018-06-25T16:06:01.478Z,80.36
2018-06-25T16:08:33.642Z,80.38
2018-06-25T16:11:08.609Z,79.44
2018-06-25T16:13:41.351Z,80.17
2018-06-25T16:16:14.244Z,80.13
2018-06-25T16:18:49.636Z,80.13
2018-06-25T16:21:21.045Z,78.56
2018-06-25T16:23:52.016Z,78.23
2018-06-25T16:26:23.736Z,77.53
2018-06-25T16:28:56.066Z,76.70
2018-06-25T16:31:28.399Z,76.88
2018-06-25T16:34:00.073Z,76.94
2018-06-25T16:36:32.296Z,77.42
2018-06-25T16:39:03.823Z,79.03
2018-06-25T16:41:35.775Z,77.83
2018-06-25T16:44:08.632Z,79.06
2018-06-25T16:46:40.539Z,79.09
2018-06-25T16:49:14.359Z,77.94
2018-06-25T16:51:47.554Z,78.32
2018-06-25T16:54:25.385Z,77.60
2018-06-25T16:56:57.375Z,78.47
2018-06-25T16:59:29.243Z,76.34
2018-06-25T17:02:05.471Z,76.34
2018-06-25T17:04:37.247Z,73.61
2018-06-25T17:07:09.270Z,71.46
2018-06-25T17:09:40.819Z,70.60
2018-06-25T17:12:14.187Z,70.38
2018-06-25T17:14:47.402Z,70.25
2018-06-25T17:17:18.913Z,69.93
2018-06-25T17:19:51.594Z,70.01
2018-06-25T17:22:23.572Z,70.09
2018-06-25T17:24:55.332Z,70.09
2018-06-25T17:27:28.089Z,69.95
2018-06-25T17:30:00.746Z,70.18
2018-06-25T17:32:33.422Z,70.58
2018-06-25T17:35:05.623Z,69.67
2018-06-25T17:37:37.964Z,69.18
2018-06-25T17:40:10.413Z,69.51
2018-06-25T17:42:44.068Z,68.71
2018-06-25T17:45:16.939Z,68.66
2018-06-25T17:47:49.984Z,69.07
2018-06-25T17:50:22.355Z,68.95
2018-06-25T17:52:54.953Z,68.54
2018-06-25T17:55:28.396Z,69.82
2018-06-25T17:58:01.322Z,70.17
2018-06-25T18:00:34.698Z,69.29
2018-06-25T18:03:07.322Z,69.55
2018-06-25T18:05:39.856Z,69.50
2018-06-25T18:08:12.800Z,70.13
2018-06-25T18:10:49.045Z,70.06
2018-06-25T18:13:22.356Z,70.62
2018-06-25T18:15:55.874Z,71.29
2018-06-25T18:18:28.989Z,71.00
2018-06-25T18:21:01.948Z,70.76
2018-06-25T18:23:35.662Z,70.81
2018-06-25T18:26:08.800Z,71.56
2018-06-25T18:28:41.659Z,71.46
2018-06-25T18:31:14.721Z,72.07
2018-06-25T18:33:49.219Z,72.33
2018-06-25T18:36:23.127Z,72.81
2018-06-25T18:38:56.100Z,72.30
2018-06-25T18:41:29.192Z,71.99
2018-06-25T18:44:02.866Z,70.92
2018-06-25T18:46:35.541Z,70.84
2018-06-25T18:49:08.840Z,71.28
2018-06-25T18:51:42.152Z,72.23
2018-06-25T18:54:15.244Z,72.35
2018-06-25T18:56:47.805Z,72.39
2018-06-25T18:59:20.311Z,71.73
2018-06-25T19:01:53.045Z,70.19
2018-06-25T19:04:25.814Z,70.79
2018-06-25T19:06:58.575Z,70.39
2018-06-25T19:09:31.326Z,69.59
2018-06-25T19:12:03.862Z,68.82
2018-06-25T19:14:37.127Z,69.33
2018-06-25T19:17:09.776Z,69.30
2018-06-25T19:19:42.688Z,69.15
2018-06-25T19:22:18.116Z,69.00
2018-06-25T19:24:52.289Z,68.79
2018-06-25T19:27:27.139Z,69.30
2018-06-25T19:30:05.121Z,69.19
2018-06-25T19:32:38.616Z,68.86
2018-06-25T19:35:14.753Z,68.54
2018-06-25T19:37:51.330Z,69.21
2018-06-25T19:40:25.805Z,69.27
2018-06-25T20:28:56.368Z,72.67
2018-06-25T20:31:29.976Z,72.83
2018-06-25T20:34:02.782Z,71.42
2018-06-25T20:36:35.531Z,70.67
2018-06-25T20:39:12.988Z,71.18
2018-06-25T20:41:46.823Z,74.44
2018-06-25T20:44:20.489Z,76.62
2018-06-25T20:46:54.217Z,77.44
2018-06-25T20:49:26.660Z,78.06
2018-06-25T20:52:01.383Z,78.16
2018-06-25T20:54:33.362Z,78.92
2018-06-25T20:57:07.153Z,77.57
2018-06-25T20:59:40.016Z,77.99
2018-06-25T21:02:11.519Z,77.97
2018-06-25T21:04:44.484Z,78.24
2018-06-25T21:07:16.050Z,78.19
2018-06-25T21:09:48.779Z,78.26
2018-06-25T21:12:21.087Z,77.59
2018-06-25T21:14:52.480Z,78.57
2018-06-25T21:17:24.072Z,78.23
2018-06-25T21:19:55.494Z,78.92
2018-06-25T21:22:27.292Z,79.14
2018-06-25T21:24:58.659Z,79.50
2018-06-25T21:27:30.555Z,79.67
2018-06-25T21:30:03.591Z,78.93
2018-06-25T21:32:35.158Z,78.93
2018-06-25T21:35:07.449Z,78.63
2018-06-25T21:37:39.759Z,79.02
2018-06-25T21:40:10.699Z,79.61
2018-06-25T21:42:42.425Z,80.45
2018-06-25T21:45:15.352Z,80.51
2018-06-25T21:47:46.658Z,79.88
2018-06-25T21:50:18.013Z,79.45
2018-06-25T21:52:49.360Z,78.97
2018-06-25T21:55:20.797Z,79.20
2018-06-25T21:57:54.384Z,78.90
2018-06-25T22:00:31.028Z,79.39
2018-06-25T22:03:03.309Z,79.58
2018-06-25T22:05:36.737Z,79.49
2018-06-25T22:08:07.907Z,79.26
2018-06-25T22:10:42.339Z,79.17
2018-06-25T22:13:14.523Z,79.11
2018-06-25T22:15:46.466Z,79.70
2018-06-25T22:18:17.680Z,80.06
2018-06-25T22:20:48.700Z,80.00
2018-06-25T22:23:24.377Z,80.68
2018-06-25T22:25:55.827Z,80.19
2018-06-25T22:28:26.963Z,80.43
2018-06-25T22:30:58.105Z,80.51
2018-06-25T22:33:29.431Z,79.61
2018-06-25T22:36:00.442Z,79.65
2018-06-25T22:38:32.076Z,80.09
2018-06-25T22:41:03.165Z,80.38
2018-06-25T22:43:35.681Z,81.27
2018-06-25T22:46:06.877Z,81.89
2018-06-25T22:48:38.200Z,82.76
2018-06-25T22:51:09.691Z,83.77
2018-06-25T22:53:41.614Z,84.48
2018-06-25T22:56:13.218Z,84.81
2018-06-25T22:58:44.981Z,84.99
2018-06-25T23:01:16.071Z,85.15
2018-06-25T23:03:47.574Z,85.63
2018-06-25T23:06:18.933Z,84.90
2018-06-25T23:08:50.300Z,85.08
2018-06-25T23:11:21.588Z,85.35
2018-06-25T23:13:52.611Z,85.28
2018-06-25T23:16:23.814Z,85.26
2018-06-25T23:18:54.791Z,85.03
2018-06-25T23:21:26.056Z,84.84
2018-06-25T23:23:57.349Z,84.61
2018-06-25T23:26:29.413Z,84.21
2018-06-25T23:29:00.515Z,84.05
2018-06-25T23:31:31.855Z,83.97
2018-06-25T23:34:03.142Z,83.77
2018-06-25T23:36:34.121Z,83.37
2018-06-25T23:39:07.238Z,83.51
2018-06-25T23:41:38.725Z,84.05
2018-06-25T23:44:10.858Z,84.04
2018-06-25T23:46:41.708Z,84.15
2018-06-25T23:49:13.500Z,83.89
2018-06-25T23:51:45.059Z,83.96
2018-06-25T23:54:17.038Z,83.58
2018-06-25T23:56:48.073Z,83.20
2018-06-25T23:59:18.643Z,83.03
